Time;durP1;ratioP1;P1;durP2;ratioP2;P2;SDS_P1;SDS_P2;PMS_P1;PMS_P2;Temp;Humidity;BMP_temperature;BMP_pressure;BME280_temperature;BME280_humidity;BME280_pressure;Samples;Min_cycle;Max_cycle;Signal;HPM_P1;HPM_P2
2022/02/04 00:02:50;;;;;;;;;;;9.20;99.90;;;;;;5072297;28;20292;-80
2022/02/04 00:07:07;;;;;;;;;;;9.20;99.90;;;;;;5072388;28;20014;-80
2022/02/04 00:09:58;;;;;;;;;;;9.20;99.90;;;;;;5057891;28;19947;-79
2022/02/04 00:28:02;;;;;;;;;;;9.10;99.90;;;;;;5055744;28;19989;-80
2022/02/04 00:30:33;;;;;;;;;;;9.10;99.90;;;;;;5037624;28;19909;-79
2022/02/04 00:33:01;;;;;;;;;;;9.20;99.90;;;;;;5055609;28;19932;-80
2022/02/04 00:38:00;;;;;;;;;;;9.40;99.90;;;;;;5055846;28;19909;-79
2022/02/04 00:40:29;;;;;;;;;;;9.50;99.90;;;;;;5055674;28;19912;-80
2022/02/04 00:42:59;;;;;;;;;;;9.50;99.90;;;;;;5037308;28;19996;-78
2022/02/04 00:45:32;;;;;;;;;;;9.40;99.90;;;;;;5052687;28;19909;-79
2022/02/04 00:48:11;;;;;;;;;;;9.20;99.90;;;;;;5055424;28;19916;-79
2022/02/04 00:50:52;;;;;;;;;;;9.30;99.90;;;;;;5037177;28;19909;-80
2022/02/04 00:53:28;;;;;;;;;;;9.20;99.90;;;;;;5055225;28;19913;-80
2022/02/04 00:56:21;;;;;;;;;;;9.30;99.90;;;;;;5033826;28;20011;-79
2022/02/04 01:25:56;;;;;;;;;;;9.20;99.90;;;;;;5052100;28;20406;-79
2022/02/04 01:28:24;;;;;;;;;;;9.10;99.90;;;;;;5074627;28;20007;-79
2022/02/04 01:30:50;;;;;;;;;;;9.10;99.90;;;;;;5056636;28;19916;-80
2022/02/04 01:33:15;;;;;;;;;;;9.30;99.90;;;;;;5074514;28;19917;-81
2022/02/04 01:35:41;;;;;;;;;;;9.30;99.90;;;;;;5071131;28;20370;-79
2022/02/04 01:38:07;;;;;;;;;;;9.20;99.90;;;;;;5074437;28;19952;-79
2022/02/04 01:40:33;;;;;;;;;;;9.30;99.90;;;;;;5074287;28;19916;-80
2022/02/04 01:42:58;;;;;;;;;;;9.20;99.90;;;;;;5074048;28;19915;-78
2022/02/04 01:45:24;;;;;;;;;;;9.20;99.90;;;;;;5040627;28;20322;-79
2022/02/04 01:47:55;;;;;;;;;;;9.20;99.90;;;;;;5054250;28;19959;-80
2022/02/04 01:50:20;;;;;;;;;;;9.20;99.90;;;;;;5054517;28;19919;-79
2022/02/04 01:52:46;;;;;;;;;;;9.30;99.90;;;;;;5054108;28;20011;-79
2022/02/04 01:55:13;;;;;;;;;;;9.40;99.90;;;;;;5050870;28;19919;-81
2022/02/04 01:57:39;;;;;;;;;;;9.30;99.90;;;;;;5036004;28;19916;-79
2022/02/04 02:00:05;;;;;;;;;;;9.30;99.90;;;;;;5053952;28;19909;-79
2022/02/04 02:02:30;;;;;;;;;;;9.40;99.90;;;;;;5054076;28;19909;-80
2022/02/04 02:04:56;;;;;;;;;;;9.40;99.90;;;;;;5044149;28;19999;-78
2022/02/04 02:07:25;;;;;;;;;;;9.60;99.90;;;;;;5073967;28;19971;-79
2022/02/04 02:10:00;;;;;;;;;;;9.70;99.90;;;;;;5073836;28;20395;-79
2022/02/04 02:12:32;;;;;;;;;;;9.50;99.90;;;;;;5073735;28;19912;-79
2022/02/04 02:15:12;;;;;;;;;;;9.40;99.90;;;;;;5070302;28;19920;-79
2022/02/04 02:56:01;;;;;;;;;;;9.70;99.90;;;;;;5032217;28;20352;-79
2022/02/04 03:02:51;;;;;;;;;;;9.70;99.90;;;;;;5072849;28;20320;-80
2022/02/04 03:05:17;;;;;;;;;;;9.70;99.90;;;;;;5069709;28;19962;-80
2022/02/04 03:07:43;;;;;;;;;;;9.60;99.90;;;;;;5073033;28;19909;-79
2022/02/04 03:10:08;;;;;;;;;;;9.70;99.90;;;;;;5072967;28;20292;-80
2022/02/04 03:12:36;;;;;;;;;;;9.60;99.90;;;;;;5072647;28;20004;-79
2022/02/04 03:15:02;;;;;;;;;;;9.50;99.90;;;;;;5069510;28;20376;-79
2022/02/04 03:17:28;;;;;;;;;;;9.30;99.90;;;;;;5072639;28;19916;-80
2022/02/04 03:19:58;;;;;;;;;;;9.30;99.90;;;;;;5073097;28;19909;-80
2022/02/04 03:22:23;;;;;;;;;;;9.30;99.90;;;;;;5072831;28;19908;-78
2022/02/04 03:24:56;;;;;;;;;;;9.20;99.90;;;;;;5068314;28;19908;-79
2022/02/04 03:27:24;;;;;;;;;;;9.20;99.90;;;;;;5015766;28;20369;-79
2022/02/04 03:32:20;;;;;;;;;;;9.20;99.90;;;;;;5052966;28;19958;-80
2022/02/04 03:34:46;;;;;;;;;;;9.30;99.90;;;;;;5041649;28;19916;-80
2022/02/04 03:37:12;;;;;;;;;;;9.30;99.90;;;;;;5072744;28;19915;-80
2022/02/04 03:39:38;;;;;;;;;;;9.30;99.90;;;;;;5072681;28;19912;-79
2022/02/04 03:42:03;;;;;;;;;;;9.20;99.90;;;;;;5055004;28;19954;-78
2022/02/04 03:44:30;;;;;;;;;;;9.30;99.90;;;;;;5070245;28;19916;-78
2022/02/04 03:46:55;;;;;;;;;;;9.20;99.90;;;;;;5074222;28;19908;-79
2022/02/04 03:49:21;;;;;;;;;;;9.20;99.90;;;;;;5076538;28;19909;-79
2022/02/04 03:51:47;;;;;;;;;;;9.20;99.90;;;;;;5076755;28;20348;-80
2022/02/04 03:54:13;;;;;;;;;;;9.30;99.90;;;;;;5072192;28;19913;-79
2022/02/04 03:56:38;;;;;;;;;;;9.20;99.90;;;;;;5055728;28;20000;-80
2022/02/04 03:59:04;;;;;;;;;;;9.40;99.90;;;;;;5056488;28;19995;-81
2022/02/04 04:01:29;;;;;;;;;;;9.50;99.90;;;;;;5038203;28;20007;-78
2022/02/04 04:03:55;;;;;;;;;;;9.50;99.90;;;;;;5055026;28;19944;-79
2022/02/04 04:06:20;;;;;;;;;;;9.50;99.90;;;;;;5054129;28;20292;-80
2022/02/04 04:08:50;;;;;;;;;;;9.50;99.90;;;;;;5056123;28;19909;-80
2022/02/04 04:11:16;;;;;;;;;;;9.40;99.90;;;;;;5056061;28;19912;-79
2022/02/04 04:13:42;;;;;;;;;;;9.40;99.90;;;;;;5055171;28;20013;-79
2022/02/04 04:16:08;;;;;;;;;;;9.30;99.90;;;;;;5046463;28;19921;-80
2022/02/04 04:18:33;;;;;;;;;;;9.30;99.90;;;;;;5034722;28;19916;-79
2022/02/04 04:21:01;;;;;;;;;;;9.30;99.90;;;;;;5036028;28;19909;-79
2022/02/04 04:23:27;;;;;;;;;;;9.30;99.90;;;;;;5035950;28;20003;-79
2022/02/04 04:25:52;;;;;;;;;;;9.30;99.90;;;;;;5026759;28;19916;-80
2022/02/04 04:28:18;;;;;;;;;;;9.30;99.90;;;;;;5026500;28;19999;-80
2022/02/04 04:30:44;;;;;;;;;;;9.40;99.90;;;;;;5035687;28;19963;-80
2022/02/04 04:33:10;;;;;;;;;;;9.40;99.90;;;;;;5035700;28;19909;-80
2022/02/04 04:35:36;;;;;;;;;;;9.40;99.90;;;;;;5049288;28;19919;-80
2022/02/04 05:29:14;;;;;;;;;;;9.30;99.90;;;;;;5074344;28;19912;-79
2022/02/04 05:31:41;;;;;;;;;;;9.30;99.90;;;;;;5074733;28;19908;-81
2022/02/04 05:34:06;;;;;;;;;;;9.30;99.90;;;;;;5072995;28;19917;-80
2022/02/04 05:36:36;;;;;;;;;;;9.20;99.90;;;;;;5054543;28;19916;-78
2022/02/04 05:39:02;;;;;;;;;;;9.20;99.90;;;;;;5056505;28;19908;-80
2022/02/04 05:41:32;;;;;;;;;;;9.30;99.90;;;;;;5074230;28;19908;-79
2022/02/04 05:44:00;;;;;;;;;;;9.30;99.90;;;;;;5069366;28;19923;-79
2022/02/04 05:46:33;;;;;;;;;;;9.20;99.90;;;;;;5069790;28;19995;-78
2022/02/04 05:49:00;;;;;;;;;;;9.20;99.90;;;;;;5074243;28;19948;-78
2022/02/04 05:51:49;;;;;;;;;;;9.20;99.90;;;;;;5056278;28;20372;-78
2022/02/04 05:54:22;;;;;;;;;;;9.10;99.90;;;;;;5048393;28;19917;-80
2022/02/04 06:00:00;;;;;;;;;;;9.10;99.90;;;;;;5074171;28;19958;-78
2022/02/04 06:23:09;;;;;;;;;;;9.20;99.90;;;;;;5053637;28;20015;-80
2022/02/04 06:25:35;;;;;;;;;;;9.20;99.90;;;;;;5032267;28;19909;-79
2022/02/04 06:28:00;;;;;;;;;;;9.30;99.90;;;;;;5033949;28;19928;-80
2022/02/04 06:30:26;;;;;;;;;;;9.20;99.90;;;;;;5053414;28;20037;-79
2022/02/04 06:32:52;;;;;;;;;;;9.20;99.90;;;;;;5053611;28;20426;-79
2022/02/04 06:35:17;;;;;;;;;;;9.20;99.90;;;;;;5058528;28;20296;-78
2022/02/04 06:37:43;;;;;;;;;;;9.30;99.90;;;;;;5072631;28;20394;-79
2022/02/04 06:40:09;;;;;;;;;;;9.20;99.90;;;;;;5073299;28;19908;-78
2022/02/04 06:42:34;;;;;;;;;;;9.30;99.90;;;;;;5072852;28;19962;-79
2022/02/04 06:45:00;;;;;;;;;;;9.10;99.90;;;;;;5059064;28;19913;-80
2022/02/04 06:47:28;;;;;;;;;;;9.10;99.90;;;;;;5034620;28;20347;-79
2022/02/04 06:49:53;;;;;;;;;;;9.00;99.90;;;;;;5035114;28;19912;-79
2022/02/04 06:52:19;;;;;;;;;;;9.00;99.90;;;;;;5035152;28;19915;-79
2022/02/04 06:54:44;;;;;;;;;;;8.90;99.90;;;;;;5059365;28;19920;-79
2022/02/04 06:57:10;;;;;;;;;;;9.00;99.90;;;;;;5072449;28;19999;-79
2022/02/04 06:59:38;;;;;;;;;;;8.90;99.90;;;;;;5073069;28;19919;-78
2022/02/04 07:02:04;;;;;;;;;;;8.90;99.90;;;;;;5073056;28;19908;-78
2022/02/04 07:04:32;;;;;;;;;;;8.90;99.90;;;;;;5062986;28;20062;-80
2022/02/04 07:07:00;;;;;;;;;;;8.90;99.90;;;;;;5060120;28;19932;-79
2022/02/04 07:19:47;;;;;;;;;;;8.80;99.90;;;;;;5056886;28;19916;-79
2022/02/04 07:22:17;;;;;;;;;;;8.80;99.90;;;;;;5057020;28;20426;-79
2022/02/04 07:24:47;;;;;;;;;;;8.80;99.90;;;;;;5062689;28;19927;-79
2022/02/04 07:27:13;;;;;;;;;;;8.80;99.90;;;;;;5076257;28;19947;-79
2022/02/04 07:29:39;;;;;;;;;;;8.80;99.90;;;;;;5057474;28;19963;-79
2022/02/04 07:32:15;;;;;;;;;;;8.80;99.90;;;;;;5058767;28;20269;-79
2022/02/04 07:35:11;;;;;;;;;;;8.90;99.90;;;;;;5054828;28;19928;-79
2022/02/04 07:43:02;;;;;;;;;;;9.00;99.90;;;;;;5076393;28;19936;-80
2022/02/04 07:45:28;;;;;;;;;;;9.10;99.90;;;;;;5057701;28;20330;-79
2022/02/04 07:47:54;;;;;;;;;;;9.10;99.90;;;;;;5056920;28;20373;-78
2022/02/04 07:50:21;;;;;;;;;;;9.10;99.90;;;;;;5076468;28;20006;-79
2022/02/04 07:52:51;;;;;;;;;;;9.10;99.90;;;;;;5076404;28;19934;-80
2022/02/04 07:55:17;;;;;;;;;;;9.20;99.90;;;;;;5072353;28;20306;-80
2022/02/04 07:57:43;;;;;;;;;;;9.20;99.90;;;;;;5058810;28;19912;-80
2022/02/04 08:00:10;;;;;;;;;;;9.20;99.90;;;;;;5057023;28;20288;-80
2022/02/04 08:02:36;;;;;;;;;;;9.20;99.90;;;;;;5056933;28;19950;-79
2022/02/04 08:05:04;;;;;;;;;;;9.30;99.90;;;;;;5065006;28;19908;-80
2022/02/04 08:07:38;;;;;;;;;;;9.30;99.90;;;;;;5076182;28;19915;-78
2022/02/04 08:10:21;;;;;;;;;;;9.30;99.90;;;;;;5076725;28;20328;-79
2022/02/04 08:25:53;;;;;;;;;;;9.50;99.90;;;;;;5065933;28;20378;-80
2022/02/04 08:38:57;;;;;;;;;;;9.70;99.90;;;;;;5076177;28;19909;-78
2022/02/04 08:49:54;;;;;;;;;;;10.30;99.90;;;;;;5055818;28;19936;-78
2022/02/04 08:55:03;;;;;;;;;;;10.60;99.90;;;;;;5060720;28;19944;-80
2022/02/04 08:57:59;;;;;;;;;;;10.90;99.90;;;;;;5068718;28;19908;-80
2022/02/04 09:00:47;;;;;;;;;;;11.20;99.90;;;;;;5075567;28;19908;-80
2022/02/04 09:03:25;;;;;;;;;;;11.30;99.90;;;;;;5075897;28;19908;-78
2022/02/04 09:06:04;;;;;;;;;;;11.70;99.90;;;;;;5042752;28;19959;-80
2022/02/04 09:08:32;;;;;;;;;;;11.50;99.90;;;;;;5055634;28;19944;-80
2022/02/04 09:11:03;;;;;;;;;;;11.30;99.90;;;;;;5055497;28;19916;-78
2022/02/04 09:19:09;;;;;;;;;;;11.80;99.90;;;;;;5075724;28;20335;-80
2022/02/04 09:24:05;;;;;;;;;;;11.40;99.90;;;;;;5070326;28;19909;-79
2022/02/04 09:26:31;;;;;;;;;;;11.50;99.90;;;;;;5067136;28;20004;-80
2022/02/04 09:28:57;;;;;;;;;;;11.70;99.90;;;;;;5036543;28;20345;-80
2022/02/04 09:31:22;;;;;;;;;;;12.30;99.90;;;;;;5055282;28;19936;-79
2022/02/04 09:33:48;;;;;;;;;;;13.10;99.90;;;;;;5036541;28;19917;-79
2022/02/04 09:36:13;;;;;;;;;;;14.00;99.90;;;;;;5067333;28;19940;-78
2022/02/04 09:38:39;;;;;;;;;;;14.40;99.90;;;;;;5055269;28;20007;-81
2022/02/04 09:41:05;;;;;;;;;;;15.10;99.90;;;;;;5053943;28;19909;-78
2022/02/04 09:43:30;;;;;;;;;;;15.90;99.90;;;;;;5055303;28;19916;-79
2022/02/04 09:45:56;;;;;;;;;;;15.50;99.90;;;;;;5035909;28;19913;-80
2022/02/04 09:48:22;;;;;;;;;;;15.40;99.90;;;;;;5037075;28;20369;-80
2022/02/04 09:50:52;;;;;;;;;;;15.70;99.90;;;;;;5054728;28;19916;-79
2022/02/04 10:15:41;;;;;;;;;;;13.50;99.90;;;;;;5054036;28;19928;-80
2022/02/04 10:18:11;;;;;;;;;;;13.60;99.90;;;;;;5036195;28;20011;-80
2022/02/04 10:20:41;;;;;;;;;;;13.40;99.90;;;;;;5036000;28;19913;-79
2022/02/04 10:23:07;;;;;;;;;;;13.60;99.90;;;;;;5053921;28;20391;-78
2022/02/04 10:25:37;;;;;;;;;;;13.80;99.90;;;;;;5058149;28;19908;-80
2022/02/04 10:28:03;;;;;;;;;;;14.60;99.90;;;;;;5059044;28;19909;-79
2022/02/04 10:30:32;;;;;;;;;;;14.60;99.90;;;;;;5034833;28;19963;-78
2022/02/04 10:32:58;;;;;;;;;;;14.90;99.90;;;;;;5036440;28;20345;-79
2022/02/04 10:35:31;;;;;;;;;;;15.80;99.90;;;;;;5044744;28;19913;-79
2022/02/04 10:38:07;;;;;;;;;;;15.90;99.90;;;;;;5059493;28;19908;-79
2022/02/04 10:45:48;;;;;;;;;;;13.50;99.90;;;;;;5052862;28;19999;-78
2022/02/04 10:48:36;;;;;;;;;;;13.30;99.90;;;;;;5052547;28;19909;-78
2022/02/04 10:51:34;;;;;;;;;;;13.00;99.90;;;;;;5053029;28;20000;-79
2022/02/04 11:07:25;;;;;;;;;;;12.90;99.90;;;;;;5052323;28;19908;-78
2022/02/04 11:35:04;;;;;;;;;;;13.60;99.90;;;;;;5033421;28;19913;-78
2022/02/04 11:52:09;;;;;;;;;;;12.10;99.90;;;;;;5033696;28;20015;-78
2022/02/04 11:54:41;;;;;;;;;;;12.10;99.90;;;;;;5028201;28;19962;-80
2022/02/04 11:57:06;;;;;;;;;;;11.70;99.90;;;;;;5047677;28;19913;-79
2022/02/04 11:59:35;;;;;;;;;;;11.50;99.90;;;;;;5050828;28;19916;-80
2022/02/04 12:02:01;;;;;;;;;;;11.40;99.90;;;;;;5046435;28;20386;-79
2022/02/04 12:04:27;;;;;;;;;;;11.60;99.90;;;;;;5049930;28;19923;-79
2022/02/04 12:06:55;;;;;;;;;;;11.40;99.90;;;;;;5054713;28;19908;-79
2022/02/04 12:09:50;;;;;;;;;;;10.80;99.90;;;;;;5055895;28;19909;-80
2022/02/04 12:12:36;;;;;;;;;;;10.70;99.90;;;;;;5034049;28;19916;-79
2022/02/04 12:15:21;;;;;;;;;;;10.80;99.90;;;;;;5055743;28;20027;-80
2022/02/04 12:17:48;;;;;;;;;;;10.90;99.90;;;;;;5070946;28;19919;-79
2022/02/04 12:20:14;;;;;;;;;;;11.20;99.90;;;;;;5064686;28;20324;-79
2022/02/04 12:22:47;;;;;;;;;;;11.20;99.90;;;;;;5042655;28;20357;-81
2022/02/04 12:25:32;;;;;;;;;;;11.50;99.90;;;;;;5054061;28;20419;-80
2022/02/04 12:28:00;;;;;;;;;;;11.70;99.90;;;;;;5063755;28;19944;-78
2022/02/04 12:30:33;;;;;;;;;;;12.10;99.90;;;;;;5023241;28;20290;-79
2022/02/04 12:33:00;;;;;;;;;;;12.20;99.90;;;;;;5036362;28;19996;-80
2022/02/04 12:35:28;;;;;;;;;;;12.20;99.90;;;;;;5043678;28;19944;-79
2022/02/04 12:37:54;;;;;;;;;;;12.20;99.90;;;;;;5055098;28;19909;-79
2022/02/04 12:40:22;;;;;;;;;;;12.10;99.90;;;;;;5056494;28;19909;-78
2022/02/04 12:42:48;;;;;;;;;;;12.00;99.90;;;;;;5056085;28;19908;-79
2022/02/04 12:45:14;;;;;;;;;;;12.20;99.90;;;;;;5040238;28;19928;-79
2022/02/04 12:47:41;;;;;;;;;;;11.80;99.90;;;;;;5048748;28;19916;-79
2022/02/04 12:50:07;;;;;;;;;;;11.50;99.90;;;;;;5035825;28;19913;-79
2022/02/04 12:52:44;;;;;;;;;;;11.50;99.90;;;;;;5035856;28;19909;-79
2022/02/04 12:55:20;;;;;;;;;;;11.30;99.90;;;;;;5038320;28;20004;-80
2022/02/04 12:58:10;;;;;;;;;;;11.30;99.90;;;;;;5042526;28;19915;-80
2022/02/04 13:08:23;;;;;;;;;;;12.30;99.90;;;;;;5046946;28;19916;-79
2022/02/04 13:11:04;;;;;;;;;;;12.40;99.90;;;;;;5055512;28;20011;-78
2022/02/04 13:13:47;;;;;;;;;;;12.00;99.90;;;;;;5055486;28;20288;-79
2022/02/04 13:16:23;;;;;;;;;;;11.70;99.90;;;;;;5037929;28;19928;-80
2022/02/04 13:18:49;;;;;;;;;;;11.90;99.90;;;;;;5035031;28;20434;-78
2022/02/04 13:21:15;;;;;;;;;;;12.30;99.90;;;;;;5035831;28;19941;-78
2022/02/04 13:23:40;;;;;;;;;;;12.40;99.90;;;;;;5035162;28;19916;-80
2022/02/04 13:26:06;;;;;;;;;;;12.40;99.90;;;;;;5033860;28;19913;-79
2022/02/04 13:28:32;;;;;;;;;;;12.20;99.90;;;;;;5048285;28;19932;-81
2022/02/04 13:31:03;;;;;;;;;;;11.90;99.90;;;;;;5036093;28;19917;-78
2022/02/04 13:33:33;;;;;;;;;;;11.70;99.90;;;;;;5055297;28;19908;-78
2022/02/04 13:41:27;;;;;;;;;;;11.50;99.90;;;;;;5054685;28;20033;-79
2022/02/04 13:44:21;;;;;;;;;;;12.20;99.90;;;;;;5035818;28;19947;-80
2022/02/04 13:46:58;;;;;;;;;;;12.60;99.90;;;;;;5053489;28;19913;-80
2022/02/04 13:57:38;;;;;;;;;;;13.90;99.90;;;;;;5053568;28;20256;-80
2022/02/04 14:00:10;;;;;;;;;;;14.20;99.90;;;;;;5047960;28;19909;-80
2022/02/04 14:02:44;;;;;;;;;;;15.60;99.90;;;;;;5054508;28;19915;-79
2022/02/04 14:05:10;;;;;;;;;;;14.90;99.90;;;;;;5051235;28;19962;-80
2022/02/04 14:07:43;;;;;;;;;;;18.70;99.80;;;;;;5054317;28;19916;-81
2022/02/04 14:10:21;;;;;;;;;;;20.90;93.80;;;;;;5054408;28;19947;-81
2022/02/04 14:13:12;;;;;;;;;;;22.70;88.90;;;;;;5054475;28;19913;-80
2022/02/04 14:15:38;;;;;;;;;;;23.80;81.90;;;;;;5055324;28;19928;-81
2022/02/04 14:18:09;;;;;;;;;;;25.20;74.10;;;;;;5073932;28;20014;-81
2022/02/04 14:20:36;;;;;;;;;;;25.10;69.60;;;;;;5074177;28;19909;-79
2022/02/04 14:23:05;;;;;;;;;;;24.90;67.80;;;;;;5074589;28;19912;-79
2022/02/04 14:25:32;;;;;;;;;;;23.60;69.20;;;;;;5060845;28;20022;-79
2022/02/04 14:28:01;;;;;;;;;;;24.60;66.80;;;;;;5060155;28;19912;-80
2022/02/04 14:30:33;;;;;;;;;;;24.90;65.40;;;;;;5054547;28;19978;-81
2022/02/04 14:33:03;;;;;;;;;;;26.10;64.50;;;;;;5074424;28;19909;-80
2022/02/04 14:35:58;;;;;;;;;;;26.00;62.40;;;;;;5045383;28;19928;-80
2022/02/04 14:58:37;;;;;;;;;;;20.00;65.30;;;;;;5057450;28;19956;-79
2022/02/04 15:03:27;;;;;;;;;;;23.50;58.50;;;;;;5073643;28;20580;-78
2022/02/04 15:05:50;;;;;;;;;;;24.00;56.60;;;;;;5057032;28;19954;-79
2022/02/04 15:08:18;;;;;;;;;;;21.80;59.00;;;;;;5073111;28;19967;-80
2022/02/04 15:10:47;;;;;;;;;;;20.10;63.40;;;;;;5073884;28;19958;-79
2022/02/04 15:13:15;;;;;;;;;;;18.40;66.30;;;;;;5073606;28;19948;-79
2022/02/04 15:15:41;;;;;;;;;;;17.20;67.30;;;;;;5063175;28;19925;-79
2022/02/04 15:18:06;;;;;;;;;;;19.40;66.20;;;;;;5066302;28;19912;-78
2022/02/04 15:20:32;;;;;;;;;;;22.10;61.50;;;;;;5053787;28;19963;-79
2022/02/04 15:22:58;;;;;;;;;;;24.00;59.30;;;;;;5053539;28;19931;-79
2022/02/04 15:25:24;;;;;;;;;;;24.50;57.40;;;;;;5052305;28;19916;-79
2022/02/04 15:28:02;;;;;;;;;;;24.60;55.60;;;;;;5055724;28;19927;-80
2022/02/04 15:30:33;;;;;;;;;;;24.30;56.20;;;;;;5054111;28;20003;-80
2022/02/04 15:32:59;;;;;;;;;;;22.80;55.30;;;;;;5073593;28;19909;-79
2022/02/04 15:35:25;;;;;;;;;;;22.10;55.90;;;;;;5062581;28;19936;-79
2022/02/04 15:37:51;;;;;;;;;;;22.30;55.70;;;;;;5052556;28;19928;-80
2022/02/04 15:40:17;;;;;;;;;;;22.30;55.60;;;;;;5057209;28;20021;-79
2022/02/04 15:42:49;;;;;;;;;;;20.30;57.60;;;;;;5039412;28;19956;-80
2022/02/04 15:45:40;;;;;;;;;;;17.90;60.90;;;;;;5061805;28;19987;-78
2022/02/04 15:50:45;;;;;;;;;;;15.90;68.80;;;;;;5057166;28;20279;-81
2022/02/04 16:03:43;;;;;;;;;;;18.10;65.10;;;;;;5056777;28;19961;-80
2022/02/04 16:06:13;;;;;;;;;;;18.20;64.20;;;;;;5057814;28;19915;-79
2022/02/04 16:08:39;;;;;;;;;;;16.20;67.10;;;;;;5067808;28;20348;-79
2022/02/04 16:13:41;;;;;;;;;;;17.60;64.30;;;;;;5056039;28;19947;-80
2022/02/04 16:18:58;;;;;;;;;;;17.10;64.50;;;;;;5064138;28;20163;-79
2022/02/04 16:21:35;;;;;;;;;;;16.60;65.00;;;;;;5058415;28;19915;-80
2022/02/04 16:28:55;;;;;;;;;;;16.60;62.80;;;;;;5055996;28;19916;-79
2022/02/04 16:31:20;;;;;;;;;;;16.20;64.30;;;;;;5037873;28;19921;-78
2022/02/04 16:33:47;;;;;;;;;;;16.30;65.30;;;;;;5054519;28;19913;-80
2022/02/04 16:36:16;;;;;;;;;;;16.00;65.40;;;;;;5046139;28;19909;-79
2022/02/04 16:38:45;;;;;;;;;;;15.70;65.30;;;;;;5043347;28;20003;-79
2022/02/04 16:41:13;;;;;;;;;;;15.50;66.30;;;;;;5054435;28;19909;-81
2022/02/04 16:43:40;;;;;;;;;;;15.30;66.80;;;;;;5054034;28;19908;-79
2022/02/04 16:46:06;;;;;;;;;;;14.90;68.10;;;;;;5045949;28;19993;-78
2022/02/04 16:48:36;;;;;;;;;;;14.80;68.70;;;;;;5034647;28;19963;-80
2022/02/04 16:51:04;;;;;;;;;;;14.60;69.80;;;;;;5034097;28;19996;-79
2022/02/04 16:53:33;;;;;;;;;;;14.40;70.60;;;;;;5033925;28;19910;-79
2022/02/04 16:55:59;;;;;;;;;;;13.70;71.30;;;;;;5044261;28;19975;-80
2022/02/04 16:58:25;;;;;;;;;;;13.30;73.40;;;;;;5038717;28;20384;-80
2022/02/04 17:00:50;;;;;;;;;;;12.70;74.10;;;;;;5052248;28;19915;-78
2022/02/04 17:03:16;;;;;;;;;;;12.10;75.80;;;;;;5053766;28;19948;-79
2022/02/04 17:05:51;;;;;;;;;;;11.70;78.20;;;;;;5046014;28;19940;-80
2022/02/04 17:08:31;;;;;;;;;;;11.40;79.80;;;;;;5031909;28;19914;-79
2022/02/04 17:10:57;;;;;;;;;;;11.10;81.40;;;;;;5033307;28;20396;-80
2022/02/04 17:13:23;;;;;;;;;;;10.80;83.30;;;;;;5034922;28;19913;-78
2022/02/04 17:15:49;;;;;;;;;;;10.60;84.40;;;;;;5030839;28;19933;-79
2022/02/04 17:18:15;;;;;;;;;;;10.40;85.20;;;;;;5034375;28;20005;-79
2022/02/04 17:20:41;;;;;;;;;;;10.40;86.10;;;;;;5034939;28;19916;-80
2022/02/04 17:23:10;;;;;;;;;;;10.30;87.30;;;;;;5034898;28;19913;-80
2022/02/04 17:25:38;;;;;;;;;;;10.00;89.30;;;;;;5030473;28;19921;-78
2022/02/04 17:28:06;;;;;;;;;;;10.00;90.10;;;;;;5034235;28;20332;-78
2022/02/04 17:30:32;;;;;;;;;;;9.80;90.90;;;;;;5018425;28;19952;-79
2022/02/04 17:32:59;;;;;;;;;;;9.60;91.40;;;;;;5054779;28;20012;-79
2022/02/04 17:35:26;;;;;;;;;;;9.50;91.60;;;;;;5050432;28;19920;-80
2022/02/04 17:37:56;;;;;;;;;;;9.40;92.60;;;;;;5037127;28;20388;-80
2022/02/04 17:40:22;;;;;;;;;;;9.30;92.90;;;;;;5073832;28;19912;-79
2022/02/04 17:42:48;;;;;;;;;;;9.40;93.10;;;;;;5074191;28;19913;-80
2022/02/04 17:45:21;;;;;;;;;;;9.30;93.60;;;;;;5064229;28;19944;-78
2022/02/04 17:48:02;;;;;;;;;;;9.20;94.00;;;;;;5072693;28;20554;-79
2022/02/04 17:50:32;;;;;;;;;;;9.10;94.90;;;;;;5074220;28;19908;-78
2022/02/04 17:53:07;;;;;;;;;;;9.00;96.00;;;;;;5056171;28;20366;-79
2022/02/04 17:55:42;;;;;;;;;;;8.90;96.80;;;;;;5051626;28;19912;-78
2022/02/04 18:01:13;;;;;;;;;;;8.80;97.40;;;;;;5072975;28;19908;-80
2022/02/04 18:06:24;;;;;;;;;;;8.70;98.00;;;;;;5059049;28;19909;-79
2022/02/04 18:08:50;;;;;;;;;;;8.70;98.70;;;;;;5053344;28;19999;-80
2022/02/04 18:11:15;;;;;;;;;;;8.70;98.80;;;;;;5053913;28;20003;-79
2022/02/04 18:13:41;;;;;;;;;;;8.70;99.20;;;;;;5053151;28;20392;-80
2022/02/04 18:16:07;;;;;;;;;;;8.60;99.70;;;;;;5056544;28;19966;-79
2022/02/04 18:18:33;;;;;;;;;;;8.50;99.90;;;;;;5069690;28;19909;-79
2022/02/04 18:21:01;;;;;;;;;;;8.70;99.70;;;;;;5053690;28;19909;-79
2022/02/04 18:23:28;;;;;;;;;;;8.50;99.90;;;;;;5053719;28;19912;-79
2022/02/04 18:25:53;;;;;;;;;;;8.50;99.90;;;;;;5049607;28;19996;-78
2022/02/04 18:28:21;;;;;;;;;;;8.40;99.90;;;;;;5053080;28;19951;-80
2022/02/04 18:30:46;;;;;;;;;;;8.40;99.90;;;;;;5016410;28;19921;-79
2022/02/04 18:33:13;;;;;;;;;;;8.40;99.90;;;;;;5035704;28;19909;-77
2022/02/04 18:35:41;;;;;;;;;;;8.30;99.90;;;;;;5053071;28;19920;-79
2022/02/04 18:38:13;;;;;;;;;;;8.30;99.90;;;;;;5073239;28;19974;-79
2022/02/04 18:43:24;;;;;;;;;;;8.20;99.90;;;;;;5073446;28;19944;-80
2022/02/04 18:45:56;;;;;;;;;;;8.30;99.90;;;;;;5068861;28;19918;-80
2022/02/04 18:48:24;;;;;;;;;;;8.10;99.90;;;;;;5072856;28;19908;-78
2022/02/04 18:58:16;;;;;;;;;;;7.80;99.90;;;;;;5053204;28;20391;-79
2022/02/04 19:00:42;;;;;;;;;;;7.70;99.90;;;;;;5034967;28;19909;-80
2022/02/04 19:03:14;;;;;;;;;;;7.70;99.90;;;;;;5053203;28;20365;-80
2022/02/04 19:05:47;;;;;;;;;;;7.70;99.90;;;;;;5030791;28;20392;-79
2022/02/04 19:08:20;;;;;;;;;;;7.50;99.90;;;;;;5052903;28;19999;-79
2022/02/04 19:10:47;;;;;;;;;;;7.60;99.90;;;;;;5053181;28;19916;-79
2022/02/04 19:13:25;;;;;;;;;;;7.70;99.90;;;;;;5052559;28;19944;-80
2022/02/04 19:16:20;;;;;;;;;;;7.50;99.90;;;;;;5044184;28;20318;-79
2022/02/04 19:21:33;;;;;;;;;;;7.40;99.90;;;;;;5052992;28;19913;-78
2022/02/04 19:23:59;;;;;;;;;;;7.30;99.90;;;;;;5047985;28;19924;-79
2022/02/04 19:26:26;;;;;;;;;;;7.30;99.90;;;;;;5028679;28;20293;-79
2022/02/04 19:28:52;;;;;;;;;;;7.40;99.90;;;;;;5031041;28;19909;-79
2022/02/04 19:31:17;;;;;;;;;;;7.40;99.90;;;;;;5014927;28;20008;-80
2022/02/04 19:33:43;;;;;;;;;;;7.20;99.90;;;;;;5031536;28;19945;-80
2022/02/04 19:36:09;;;;;;;;;;;7.10;99.90;;;;;;5038305;28;20262;-79
2022/02/04 19:38:34;;;;;;;;;;;7.20;99.90;;;;;;5032557;28;19909;-78
2022/02/04 19:41:01;;;;;;;;;;;7.10;99.90;;;;;;5032660;28;19960;-79
2022/02/04 19:43:28;;;;;;;;;;;7.10;99.90;;;;;;5032917;28;19909;-80
2022/02/04 19:45:55;;;;;;;;;;;7.20;99.90;;;;;;5037352;28;19943;-79
2022/02/04 19:48:33;;;;;;;;;;;7.00;99.90;;;;;;5032641;28;19909;-79
2022/02/04 19:51:09;;;;;;;;;;;6.80;99.90;;;;;;5032934;28;19909;-80
2022/02/04 20:12:50;;;;;;;;;;;6.70;99.90;;;;;;5031682;28;19915;-80
2022/02/04 20:14:15;;;;;;;;;;;6.70;99.90;;;;;;5032611;28;20491;-80
2022/02/04 20:26:57;;;;;;;;;;;6.50;99.90;;;;;;5065059;28;19927;-79
2022/02/04 20:29:23;;;;;;;;;;;6.50;99.90;;;;;;5049769;28;19909;-80
2022/02/04 20:31:49;;;;;;;;;;;6.50;99.90;;;;;;5037194;28;19921;-80
2022/02/04 20:34:14;;;;;;;;;;;6.60;99.90;;;;;;5060228;28;20004;-81
2022/02/04 20:36:40;;;;;;;;;;;6.80;99.90;;;;;;5064822;28;19909;-80
2022/02/04 20:39:07;;;;;;;;;;;6.90;99.90;;;;;;5055301;28;19909;-80
2022/02/04 20:41:34;;;;;;;;;;;6.80;99.90;;;;;;5037705;28;19951;-79
2022/02/04 20:44:00;;;;;;;;;;;6.80;99.90;;;;;;5036427;28;19923;-79
2022/02/04 20:46:26;;;;;;;;;;;6.60;99.90;;;;;;5052545;28;20397;-79
2022/02/04 20:48:53;;;;;;;;;;;6.40;99.90;;;;;;5055236;28;19909;-79
2022/02/04 20:51:18;;;;;;;;;;;6.40;99.90;;;;;;5037528;28;19909;-80
2022/02/04 20:53:44;;;;;;;;;;;6.30;99.90;;;;;;5054388;28;19915;-80
2022/02/04 20:56:10;;;;;;;;;;;6.40;99.90;;;;;;5052430;28;19915;-79
2022/02/04 20:58:36;;;;;;;;;;;6.40;99.90;;;;;;5055313;28;19909;-80
2022/02/04 21:01:09;;;;;;;;;;;6.30;99.90;;;;;;5073770;28;19919;-80
2022/02/04 21:03:36;;;;;;;;;;;6.20;99.90;;;;;;5074874;28;19915;-79
2022/02/04 21:06:12;;;;;;;;;;;6.20;99.90;;;;;;5060099;28;19909;-79
2022/02/04 21:09:19;;;;;;;;;;;6.20;99.90;;;;;;5075242;28;19919;-79
2022/02/04 21:14:11;;;;;;;;;;;6.10;99.90;;;;;;5073330;28;19923;-79
2022/02/04 21:16:37;;;;;;;;;;;6.10;99.90;;;;;;5035630;28;19971;-79
2022/02/04 21:19:07;;;;;;;;;;;6.30;99.90;;;;;;5054069;28;20238;-79
2022/02/04 21:21:32;;;;;;;;;;;6.40;99.90;;;;;;5054959;28;19993;-79
2022/02/04 21:23:58;;;;;;;;;;;6.50;99.90;;;;;;5053697;28;19953;-79
2022/02/04 21:26:24;;;;;;;;;;;6.50;99.90;;;;;;5042599;28;19913;-80
2022/02/04 21:28:51;;;;;;;;;;;6.50;99.90;;;;;;5034624;28;19916;-79
2022/02/04 21:31:16;;;;;;;;;;;6.40;99.90;;;;;;5015529;28;19909;-79
2022/02/04 21:34:11;;;;;;;;;;;6.50;99.90;;;;;;5033431;28;19910;-79
2022/02/04 21:39:15;;;;;;;;;;;6.00;99.90;;;;;;5034358;28;19924;-79
2022/02/04 21:41:40;;;;;;;;;;;5.80;99.90;;;;;;5016738;28;20305;-79
2022/02/04 21:44:06;;;;;;;;;;;5.70;99.90;;;;;;5033251;28;19935;-78